Weather History for Perryton, TX

Change the Weather History Date:

Tuesday, February 5, 2013

  Actual Average Record
Temperature  
Mean Temperature 44 °F -  
Max Temperature 64 °F 46 °F 74 °F (2009)
Min Temperature 24 °F 19 °F -7 °F (1989)
Degree Days  
Heating Degree Days 21    
Moisture  
Dew Point 21 °F    
Average Humidity 47    
Maximum Humidity 74    
Minimum Humidity 18    
Precipitation  
Precipitation 0.00 in - - ()
Sea Level Pressure  
Sea Level Pressure 29.97 in    
Wind  
Wind Speed 8 mph (SE)    
Max Wind Speed 17 mph    
Max Gust Speed 22 mph    
Visibility 10 miles    
Events      
Averages and records for this station are not official NWS values.
T = Trace of Precipitation, MM = Missing Value Source: NWS Daily Summary

Daily Weather History Graph

Daily Weather History Graph

Search for Another Location

Airport:

Trip Planner

Search our weather history database for the weather conditions in past years. The results will help you decide how hot, cold, wet, or windy it might be!

Date:

Astronomy

Feb. 05, 2013 Rise Set
Actual Time 7:40 AM CST 6:13 PM CST
Civil Twilight 7:13 AM CST 6:40 PM CST
Nautical Twilight 6:43 AM CST 7:11 PM CST
Astronomical Twilight 6:13 AM CST 7:41 PM CST
Moon 3:21 AM CST (2/5) 1:36 PM CST (2/5)
Length of Visible Light 11h 26m
Length of Day
10h 33m
Waning Crescent, 26% of the Moon is Illuminated
Feb 5
Waning Crescent
Feb 10
New
Feb 17
First Quarter
Feb 25
Full
Mar 4
Last Quarter

Hourly Weather History & Observations

Time (CST) Temp. Windchill Dew Point Humidity Pressure Visibility Wind Dir Wind Speed Gust Speed Precip Events Conditions
12:15 AM 32.0 °F 24.2 °F 19.4 °F 60% 29.93 in 10.0 mi South 9.2 mph - N/A   Clear
12:35 AM 32.0 °F 24.8 °F 19.4 °F 60% 29.92 in 10.0 mi SSE 8.1 mph - N/A   Clear
12:55 AM 32.0 °F 24.2 °F 19.4 °F 60% 29.92 in 10.0 mi South 9.2 mph - N/A   Clear
1:15 AM 30.2 °F 22.6 °F 19.4 °F 64% 29.91 in 10.0 mi South 8.1 mph - N/A   Clear
1:35 AM 30.2 °F 21.9 °F 19.4 °F 64% 29.91 in 10.0 mi South 9.2 mph - N/A   Clear
1:55 AM 30.2 °F 21.9 °F 19.4 °F 64% 29.90 in 10.0 mi South 9.2 mph - N/A   Clear
2:15 AM 30.2 °F 22.6 °F 19.4 °F 64% 29.91 in 10.0 mi South 8.1 mph - N/A   Clear
2:35 AM 30.2 °F 23.4 °F 19.4 °F 64% 29.91 in 10.0 mi South 6.9 mph - N/A   Clear
2:55 AM 30.2 °F 23.4 °F 19.4 °F 64% 29.91 in 10.0 mi South 6.9 mph - N/A   Clear
3:15 AM 32.0 °F 26.4 °F 19.4 °F 60% 29.91 in 10.0 mi South 5.8 mph - N/A   Clear
3:35 AM 32.0 °F 27.5 °F 21.2 °F 64% 29.91 in 10.0 mi SSE 4.6 mph - N/A   Clear
3:55 AM 32.0 °F 26.4 °F 21.2 °F 64% 29.91 in 10.0 mi SSE 5.8 mph - N/A   Clear
4:15 AM 26.6 °F 16.8 °F 17.6 °F 69% 29.91 in 10.0 mi South 10.4 mph - N/A   Clear
4:35 AM 28.4 °F 20.4 °F 19.4 °F 69% 29.91 in 10.0 mi South 8.1 mph - N/A   Clear
4:55 AM 28.4 °F 19.1 °F 19.4 °F 69% 29.90 in 10.0 mi South 10.4 mph - N/A   Clear
5:15 AM 32.0 °F 24.8 °F 21.2 °F 64% 29.91 in 10.0 mi South 8.1 mph - N/A   Clear
5:35 AM 30.2 °F 23.4 °F 21.2 °F 69% 29.91 in 10.0 mi SSW 6.9 mph - N/A   Clear
5:55 AM 26.6 °F 18.2 °F 19.4 °F 74% 29.92 in 10.0 mi SSW 8.1 mph - N/A   Clear
6:15 AM 30.2 °F 23.4 °F 21.2 °F 69% 29.93 in 10.0 mi SW 6.9 mph - N/A   Clear
6:35 AM 30.2 °F 24.3 °F 21.2 °F 69% 29.94 in 10.0 mi SW 5.8 mph - N/A   Clear
6:55 AM 30.2 °F 24.3 °F 21.2 °F 69% 29.94 in 10.0 mi SW 5.8 mph - N/A   Clear
7:15 AM 28.4 °F 21.2 °F 19.4 °F 69% 29.94 in 10.0 mi South 6.9 mph - N/A   Clear
7:35 AM 24.8 °F - 17.6 °F 74% 29.96 in 10.0 mi Calm Calm - N/A   Clear
7:55 AM 26.6 °F - 19.4 °F 74% 29.96 in 10.0 mi Calm Calm - N/A   Clear
8:15 AM 26.6 °F 20.0 °F 17.6 °F 69% 29.97 in 10.0 mi NW 5.8 mph - N/A   Clear
8:35 AM 28.4 °F 24.6 °F 19.4 °F 69% 29.97 in 10.0 mi WNW 3.5 mph - N/A   Clear
8:55 AM 32.0 °F - 23.0 °F 69% 29.97 in 10.0 mi Calm Calm - N/A   Clear
9:15 AM 37.4 °F 34.9 °F 24.8 °F 60% 29.98 in 7.0 mi SE 3.5 mph - N/A   Clear
9:35 AM 41.0 °F 39.0 °F 23.0 °F 49% 29.98 in 10.0 mi SSW 3.5 mph - N/A   Clear
9:55 AM 42.8 °F 40.1 °F 23.0 °F 46% 30.00 in 10.0 mi WNW 4.6 mph - N/A   Clear
10:15 AM 44.6 °F 40.7 °F 23.0 °F 43% 30.02 in 10.0 mi NNW 6.9 mph - N/A   Clear
10:35 AM 46.4 °F - 21.2 °F 37% 30.01 in 10.0 mi Calm Calm - N/A   Clear
10:55 AM 50.0 °F - 23.0 °F 35% 30.03 in 10.0 mi North 3.5 mph - N/A   Clear
11:15 AM 51.8 °F - 23.0 °F 33% 30.03 in 10.0 mi NNE 6.9 mph - N/A   Clear
11:35 AM 53.6 °F - 23.0 °F 30% 30.03 in 10.0 mi North 8.1 mph - N/A   Clear
11:55 AM 55.4 °F - 23.0 °F 29% 30.03 in 10.0 mi NE 5.8 mph - N/A   Clear
12:15 PM 55.4 °F - 23.0 °F 29% 30.03 in 10.0 mi ENE 8.1 mph - N/A   Clear
12:35 PM 59.0 °F - 23.0 °F 25% 30.02 in 10.0 mi ENE 8.1 mph - N/A   Clear
12:55 PM 59.0 °F - 21.2 °F 23% 30.02 in 10.0 mi ENE 9.2 mph 16.1 mph N/A   Clear
1:15 PM 60.8 °F - 21.2 °F 22% 30.01 in 10.0 mi ENE 11.5 mph 17.3 mph N/A   Clear
1:35 PM 62.6 °F - 21.2 °F 20% 30.00 in 10.0 mi ENE 15.0 mph - N/A   Clear
1:55 PM 62.6 °F - 21.2 °F 20% 29.99 in 10.0 mi ENE 12.7 mph 17.3 mph N/A   Clear
2:15 PM 62.6 °F - 21.2 °F 20% 29.99 in 10.0 mi NE 12.7 mph - N/A   Clear
2:35 PM 62.6 °F - 21.2 °F 20% 29.98 in 10.0 mi NE 17.3 mph 21.9 mph N/A   Clear
2:55 PM 62.6 °F - 21.2 °F 20% 29.98 in 10.0 mi NE 17.3 mph 21.9 mph N/A   Clear
3:15 PM 62.6 °F - 19.4 °F 19% 29.98 in 10.0 mi ENE 16.1 mph 21.9 mph N/A   Clear
3:35 PM 64.4 °F - 19.4 °F 18% 29.98 in 10.0 mi East 13.8 mph - N/A   Clear
3:55 PM 62.6 °F - 19.4 °F 19% 29.97 in 10.0 mi ENE 12.7 mph 21.9 mph N/A   Clear
4:15 PM 62.6 °F - 21.2 °F 20% 29.97 in 10.0 mi ENE 12.7 mph - N/A   Clear
4:35 PM 62.6 °F - 21.2 °F 20% 29.97 in 10.0 mi East 12.7 mph - N/A   Clear
5:15 PM 60.8 °F - 21.2 °F 22% 29.97 in 10.0 mi East 10.4 mph - N/A   Clear
5:55 PM 59.0 °F - 21.2 °F 23% 29.98 in 10.0 mi ESE 6.9 mph - N/A   Clear
6:15 PM 55.4 °F - 21.2 °F 26% 29.98 in 10.0 mi ESE 8.1 mph - N/A   Clear
6:35 PM 51.8 °F - 21.2 °F 30% 29.98 in 10.0 mi East 8.1 mph - N/A   Clear
6:55 PM 51.8 °F - 21.2 °F 30% 29.98 in 10.0 mi East 8.1 mph - N/A   Clear
7:15 PM 50.0 °F - 21.2 °F 32% 29.99 in 10.0 mi East 9.2 mph - N/A   Clear
7:35 PM 46.4 °F 41.9 °F 21.2 °F 37% 29.99 in 10.0 mi East 9.2 mph - N/A   Clear
7:55 PM 46.4 °F 41.9 °F 21.2 °F 37% 30.00 in 10.0 mi East 9.2 mph - N/A   Clear
8:15 PM 48.2 °F - 21.2 °F 34% 30.00 in 10.0 mi ESE 11.5 mph - N/A   Clear
8:35 PM 46.4 °F 41.9 °F 21.2 °F 37% 30.01 in 10.0 mi ESE 9.2 mph - N/A   Clear
8:55 PM 44.6 °F 39.2 °F 19.4 °F 37% 30.01 in 10.0 mi SE 10.4 mph - N/A   Clear
9:15 PM 42.8 °F 37.0 °F 21.2 °F 42% 30.01 in 10.0 mi ESE 10.4 mph - N/A   Clear
9:35 PM 39.2 °F 32.5 °F 19.4 °F 45% 30.00 in 10.0 mi SE 10.4 mph - N/A   Clear
9:55 PM 37.4 °F 31.4 °F 19.4 °F 48% 30.00 in 10.0 mi SE 8.1 mph - N/A   Clear
10:15 PM 35.6 °F 28.6 °F 19.4 °F 52% 30.00 in 10.0 mi SSE 9.2 mph - N/A   Clear
10:35 PM 35.6 °F 29.2 °F 21.2 °F 56% 30.00 in 10.0 mi South 8.1 mph - N/A   Clear
10:55 PM 33.8 °F 27.7 °F 21.2 °F 60% 30.00 in 10.0 mi South 6.9 mph - N/A   Clear
11:15 PM 35.6 °F 29.9 °F 21.2 °F 56% 30.00 in 10.0 mi South 6.9 mph - N/A   Clear
11:35 PM 33.8 °F 27.0 °F 19.4 °F 56% 29.99 in 10.0 mi South 8.1 mph - N/A   Clear
11:55 PM 33.8 °F 28.6 °F 21.2 °F 60% 29.99 in 10.0 mi South 5.8 mph - N/A   Clear